createdAt,value
2022-10-25T00:00:52.630Z,12.70
2022-10-25T00:03:20.103Z,12.70
2022-10-25T00:05:47.487Z,12.70
2022-10-25T00:08:14.970Z,12.70
2022-10-25T00:10:42.294Z,12.70
2022-10-25T00:13:09.663Z,12.70
2022-10-25T00:15:37.137Z,12.70
2022-10-25T00:18:04.669Z,12.70
2022-10-25T00:20:31.981Z,12.70
2022-10-25T00:22:59.352Z,12.70
2022-10-25T00:25:26.701Z,12.70
2022-10-25T00:27:54.192Z,12.70
2022-10-25T00:30:21.536Z,12.60
2022-10-25T00:32:52.789Z,12.60
2022-10-25T00:35:20.601Z,12.60
2022-10-25T00:37:48.031Z,12.60
2022-10-25T00:40:16.305Z,12.60
2022-10-25T00:42:43.902Z,12.60
2022-10-25T00:45:25.675Z,12.60
2022-10-25T00:48:06.506Z,12.60
2022-10-25T00:50:45.566Z,12.60
2022-10-25T00:53:17.586Z,12.50
2022-10-25T00:55:51.020Z,12.50
2022-10-25T00:58:21.585Z,12.50
2022-10-25T01:00:49.592Z,12.50
2022-10-25T01:03:19.167Z,12.50
2022-10-25T01:05:47.921Z,12.50
2022-10-25T01:08:17.083Z,12.50
2022-10-25T01:10:44.452Z,12.60
2022-10-25T01:13:11.945Z,12.50
2022-10-25T01:16:01.165Z,12.50
2022-10-25T01:19:09.918Z,12.50
2022-10-25T01:21:47.428Z,12.50
2022-10-25T01:24:36.478Z,12.50
2022-10-25T01:27:13.854Z,12.50
2022-10-25T01:30:08.375Z,12.50
2022-10-25T01:32:50.474Z,12.60
2022-10-25T01:35:31.136Z,12.50
2022-10-25T01:38:39.337Z,12.60
2022-10-25T01:41:14.253Z,12.60
2022-10-25T01:43:53.469Z,12.60
2022-10-25T01:46:20.905Z,12.50
2022-10-25T01:48:59.635Z,12.60
2022-10-25T01:51:29.095Z,12.50
2022-10-25T01:53:56.886Z,12.50
2022-10-25T01:56:29.345Z,12.50
2022-10-25T01:59:14.798Z,12.50
2022-10-25T02:02:24.125Z,12.50
2022-10-25T02:05:17.975Z,12.50
2022-10-25T02:08:08.319Z,12.40
2022-10-25T02:10:44.397Z,12.50
2022-10-25T02:13:28.289Z,12.40
2022-10-25T02:16:05.689Z,12.50
2022-10-25T02:18:37.371Z,12.40
2022-10-25T02:21:07.019Z,12.40
2022-10-25T02:23:36.764Z,12.40
2022-10-25T02:26:07.564Z,12.50
2022-10-25T02:28:38.244Z,12.40
2022-10-25T02:31:09.887Z,12.50
2022-10-25T02:33:38.330Z,12.50
2022-10-25T02:36:08.519Z,12.50
2022-10-25T02:38:36.182Z,12.50
2022-10-25T02:41:05.112Z,12.50
2022-10-25T02:43:32.907Z,12.50
2022-10-25T02:46:00.431Z,12.50
2022-10-25T02:48:27.857Z,12.50
2022-10-25T02:50:55.245Z,12.50
2022-10-25T02:53:22.585Z,12.50
2022-10-25T02:55:59.773Z,12.50
2022-10-25T02:58:30.227Z,12.50
2022-10-25T03:00:59.144Z,12.50
2022-10-25T03:03:27.817Z,12.60
2022-10-25T03:05:55.970Z,12.50
2022-10-25T03:08:24.336Z,12.60
2022-10-25T03:10:52.249Z,12.50
2022-10-25T03:13:19.718Z,12.60
2022-10-25T03:15:47.433Z,12.60
2022-10-25T03:18:15.366Z,12.50
2022-10-25T03:20:43.150Z,12.50
2022-10-25T03:23:11.368Z,12.50
2022-10-25T03:25:39.630Z,12.50
2022-10-25T03:28:07.872Z,12.50
2022-10-25T03:30:36.030Z,12.50
2022-10-25T03:33:03.490Z,12.40
2022-10-25T03:35:30.842Z,12.50
2022-10-25T03:37:58.191Z,12.50
2022-10-25T03:40:25.646Z,12.40
2022-10-25T03:42:53.008Z,12.40
2022-10-25T03:45:20.524Z,12.40
2022-10-25T03:47:51.577Z,12.40
2022-10-25T03:50:19.355Z,12.40
2022-10-25T03:52:46.783Z,12.40
2022-10-25T03:55:14.155Z,12.40
2022-10-25T03:57:41.511Z,12.40
2022-10-25T04:00:09.513Z,12.40
2022-10-25T04:02:36.886Z,12.40
2022-10-25T04:05:04.897Z,12.40
2022-10-25T04:07:32.283Z,12.40
2022-10-25T04:09:59.654Z,12.40
2022-10-25T04:12:27.027Z,12.40
2022-10-25T04:14:54.433Z,12.40
2022-10-25T04:17:21.869Z,12.40
2022-10-25T04:19:49.221Z,12.40
2022-10-25T04:22:16.620Z,12.40
2022-10-25T04:24:43.947Z,12.40
2022-10-25T04:27:11.422Z,12.40
2022-10-25T04:29:38.864Z,12.40
2022-10-25T04:32:06.796Z,12.40
2022-10-25T04:34:34.555Z,12.40
2022-10-25T04:37:01.907Z,12.40
2022-10-25T04:39:29.293Z,12.30
2022-10-25T04:41:56.696Z,12.40
2022-10-25T04:44:24.100Z,12.40
2022-10-25T04:46:52.198Z,12.30
2022-10-25T04:49:19.601Z,12.30
2022-10-25T04:51:47.019Z,12.30
2022-10-25T04:54:14.565Z,12.30
2022-10-25T04:56:41.968Z,12.30
2022-10-25T04:59:09.871Z,12.30
2022-10-25T05:01:37.426Z,12.40
2022-10-25T05:04:04.895Z,12.40
2022-10-25T05:06:32.331Z,12.40
2022-10-25T05:08:59.691Z,12.40
2022-10-25T05:11:27.266Z,12.40
2022-10-25T05:13:54.772Z,12.40
2022-10-25T05:16:24.586Z,12.40
2022-10-25T05:18:54.509Z,12.40
2022-10-25T05:24:01.462Z,12.40
2022-10-25T05:26:31.089Z,12.40
2022-10-25T05:28:58.631Z,12.40
2022-10-25T05:31:31.347Z,12.50
2022-10-25T05:34:00.521Z,12.50
2022-10-25T05:36:33.327Z,12.60
2022-10-25T05:39:01.587Z,12.70
2022-10-25T05:41:32.061Z,12.70
2022-10-25T05:44:02.092Z,12.70
2022-10-25T05:46:29.464Z,12.80
2022-10-25T05:48:59.401Z,12.70
2022-10-25T05:51:36.649Z,12.80
2022-10-25T05:54:07.385Z,12.80
2022-10-25T05:56:35.901Z,12.80
2022-10-25T05:59:11.654Z,12.80
2022-10-25T06:01:41.748Z,12.80
2022-10-25T06:04:10.156Z,12.80
2022-10-25T06:06:39.480Z,12.80
2022-10-25T06:09:07.573Z,12.90
2022-10-25T06:11:35.358Z,12.90
2022-10-25T06:14:03.359Z,12.90
2022-10-25T06:16:30.915Z,12.80
2022-10-25T06:18:58.315Z,12.70
2022-10-25T06:21:28.022Z,12.70
2022-10-25T06:23:56.160Z,12.70
2022-10-25T06:26:26.751Z,12.60
2022-10-25T06:28:59.903Z,12.70
2022-10-25T06:31:28.221Z,12.60
2022-10-25T06:33:55.551Z,12.60
2022-10-25T06:36:24.822Z,12.60
2022-10-25T06:38:52.534Z,12.60
2022-10-25T06:41:26.194Z,12.50
2022-10-25T06:43:54.699Z,12.50
2022-10-25T06:46:25.012Z,12.50
2022-10-25T06:48:54.282Z,12.50
2022-10-25T06:51:22.660Z,12.40
2022-10-25T06:54:01.285Z,12.40
2022-10-25T06:56:29.400Z,12.40
2022-10-25T06:58:56.815Z,12.40
2022-10-25T07:01:25.586Z,12.40
2022-10-25T07:03:54.843Z,12.40
2022-10-25T07:06:35.975Z,12.50
2022-10-25T07:09:05.123Z,12.50
2022-10-25T07:11:33.503Z,12.50
2022-10-25T07:14:02.304Z,12.50
2022-10-25T07:16:29.724Z,12.50
2022-10-25T07:19:01.351Z,12.60
2022-10-25T07:21:30.621Z,12.60
2022-10-25T07:23:58.052Z,12.60
2022-10-25T07:26:26.650Z,12.60
2022-10-25T07:28:55.589Z,12.60
2022-10-25T07:31:26.106Z,12.70
2022-10-25T07:33:55.116Z,12.70
2022-10-25T07:36:22.700Z,12.70
2022-10-25T07:38:50.026Z,12.70
2022-10-25T07:41:17.545Z,12.70
2022-10-25T07:43:45.312Z,12.70
2022-10-25T07:46:12.855Z,12.70
2022-10-25T07:48:40.483Z,12.80
2022-10-25T07:51:13.311Z,12.80
2022-10-25T07:53:41.119Z,12.80
2022-10-25T07:56:16.187Z,12.80
2022-10-25T07:58:46.704Z,12.80
2022-10-25T08:01:19.841Z,12.80
2022-10-25T08:03:47.316Z,12.80
2022-10-25T08:06:14.812Z,12.90
2022-10-25T08:08:42.228Z,12.90
2022-10-25T08:11:09.676Z,12.90
2022-10-25T08:13:38.523Z,12.90
2022-10-25T08:16:06.760Z,12.90
2022-10-25T08:18:34.767Z,13.00
2022-10-25T08:21:03.848Z,13.00
2022-10-25T08:23:32.546Z,13.10
2022-10-25T08:26:01.006Z,13.10
2022-10-25T08:28:31.316Z,13.10
2022-10-25T08:31:01.150Z,13.10
2022-10-25T08:33:29.144Z,13.10
2022-10-25T08:36:00.969Z,13.10
2022-10-25T08:38:29.005Z,13.20
2022-10-25T08:41:22.426Z,13.20
2022-10-25T08:44:27.300Z,13.20
2022-10-25T08:47:29.730Z,13.20
2022-10-25T08:50:34.172Z,13.20
2022-10-25T08:53:05.837Z,13.30
2022-10-25T08:55:41.681Z,13.30
2022-10-25T08:58:31.582Z,13.30
2022-10-25T09:01:04.933Z,13.40
2022-10-25T09:03:33.299Z,13.40
2022-10-25T09:06:00.784Z,13.50
2022-10-25T09:08:43.282Z,13.60
2022-10-25T09:11:36.710Z,13.70
2022-10-25T09:14:08.323Z,13.70
2022-10-25T09:16:51.545Z,13.80
2022-10-25T09:19:24.737Z,14.00
2022-10-25T09:22:02.314Z,14.10
2022-10-25T09:24:35.735Z,14.20
2022-10-25T09:27:22.406Z,14.20
2022-10-25T09:30:05.217Z,14.40
2022-10-25T09:32:39.454Z,14.40
2022-10-25T09:35:18.364Z,14.50
2022-10-25T09:37:49.820Z,14.60
2022-10-25T09:40:26.294Z,14.60
2022-10-25T09:43:01.868Z,14.70
2022-10-25T09:45:44.396Z,14.70
2022-10-25T09:48:15.723Z,14.80
2022-10-25T09:51:08.144Z,14.80
2022-10-25T09:53:40.251Z,14.90
2022-10-25T09:56:08.047Z,15.00
2022-10-25T09:58:40.040Z,15.10
2022-10-25T10:01:19.506Z,15.10
2022-10-25T10:03:50.308Z,15.20
2022-10-25T10:06:28.381Z,15.20
2022-10-25T10:09:03.476Z,15.30
2022-10-25T10:11:32.247Z,15.30
2022-10-25T10:14:16.173Z,15.40
2022-10-25T10:16:50.136Z,15.50
2022-10-25T10:19:21.072Z,15.50
2022-10-25T10:21:52.552Z,15.50
2022-10-25T10:24:23.835Z,15.50
2022-10-25T10:26:55.655Z,15.50
2022-10-25T10:29:37.081Z,15.50
2022-10-25T10:32:29.538Z,15.50
2022-10-25T10:34:58.457Z,15.50
2022-10-25T10:37:27.687Z,15.50
2022-10-25T10:40:01.036Z,15.60
2022-10-25T10:42:37.503Z,15.50
2022-10-25T10:45:13.443Z,15.50
2022-10-25T10:47:49.826Z,15.50
2022-10-25T10:50:23.457Z,15.50
2022-10-25T10:53:04.042Z,15.60
2022-10-25T10:55:46.587Z,15.50
2022-10-25T10:58:16.397Z,15.60
2022-10-25T11:00:51.197Z,15.70
2022-10-25T11:03:48.883Z,15.80
2022-10-25T11:06:30.382Z,15.80
2022-10-25T11:09:09.693Z,15.80
2022-10-25T11:11:37.134Z,15.90
2022-10-25T11:14:17.996Z,16.00
2022-10-25T11:17:00.646Z,16.10
2022-10-25T11:19:47.540Z,16.20
2022-10-25T11:22:36.334Z,16.30
2022-10-25T11:25:13.137Z,16.40
2022-10-25T11:27:58.149Z,16.50
2022-10-25T11:30:34.579Z,16.60
2022-10-25T11:33:09.170Z,16.70
2022-10-25T11:36:01.809Z,16.80
2022-10-25T11:38:59.291Z,16.80
2022-10-25T11:41:58.499Z,16.90
2022-10-25T11:45:17.520Z,16.90
2022-10-25T11:47:51.353Z,16.80
2022-10-25T11:50:18.635Z,16.80
2022-10-25T11:52:56.847Z,16.80
2022-10-25T11:55:38.468Z,16.60
2022-10-25T11:58:41.625Z,16.60
2022-10-25T12:01:33.682Z,16.50
2022-10-25T12:04:10.111Z,16.40
2022-10-25T12:06:49.245Z,16.40
2022-10-25T12:09:19.708Z,16.30
2022-10-25T12:11:55.733Z,16.30
2022-10-25T12:14:40.393Z,16.30
2022-10-25T12:17:31.747Z,16.30
2022-10-25T12:20:03.559Z,16.30
2022-10-25T12:22:42.152Z,16.30
2022-10-25T12:25:25.924Z,16.30
2022-10-25T12:28:13.349Z,16.30
2022-10-25T12:30:42.699Z,16.20
2022-10-25T12:33:13.080Z,16.20
2022-10-25T12:35:49.434Z,16.20
2022-10-25T12:38:43.197Z,16.20
2022-10-25T12:41:21.640Z,16.30
2022-10-25T12:43:51.699Z,16.30
2022-10-25T12:46:24.671Z,16.40
2022-10-25T12:49:03.718Z,16.50
2022-10-25T12:51:54.416Z,16.50
2022-10-25T12:54:33.618Z,16.40
2022-10-25T12:57:30.400Z,16.50
2022-10-25T13:00:22.148Z,16.50
2022-10-25T13:03:20.214Z,16.50
2022-10-25T13:06:25.291Z,16.70
2022-10-25T13:08:55.484Z,17.30
2022-10-25T13:11:33.637Z,17.80
2022-10-25T13:14:01.752Z,17.90
2022-10-25T13:16:31.993Z,18.20
2022-10-25T13:19:35.869Z,18.70
2022-10-25T13:22:28.057Z,19.10
2022-10-25T13:25:00.092Z,19.30
2022-10-25T13:27:33.097Z,19.60
2022-10-25T13:30:35.480Z,19.70
2022-10-25T13:33:24.572Z,19.60
2022-10-25T13:35:51.882Z,18.80
2022-10-25T13:39:02.439Z,18.00
2022-10-25T13:41:44.868Z,17.50
2022-10-25T13:44:20.887Z,17.20
2022-10-25T13:46:48.620Z,17.00
2022-10-25T13:49:29.682Z,16.90
2022-10-25T13:51:59.647Z,16.80
2022-10-25T13:54:48.165Z,16.70
2022-10-25T13:57:54.102Z,16.70
2022-10-25T14:00:26.367Z,16.70
2022-10-25T14:03:09.768Z,16.70
2022-10-25T14:05:55.624Z,16.80
2022-10-25T14:08:28.373Z,16.80
2022-10-25T14:11:00.430Z,16.80
2022-10-25T14:14:08.462Z,16.80
2022-10-25T14:16:41.953Z,16.80
2022-10-25T14:19:22.123Z,16.80
2022-10-25T14:21:52.377Z,16.80
2022-10-25T14:24:21.137Z,16.80
2022-10-25T14:26:53.512Z,16.80
2022-10-25T14:29:23.233Z,16.80
2022-10-25T14:31:52.468Z,16.80
2022-10-25T14:34:28.309Z,16.90
2022-10-25T14:36:59.102Z,16.80
2022-10-25T14:39:30.467Z,16.80
2022-10-25T14:42:00.648Z,16.80
2022-10-25T14:44:31.173Z,16.80
2022-10-25T14:47:00.146Z,16.80
2022-10-25T14:49:27.958Z,16.80
2022-10-25T14:52:02.884Z,16.90
2022-10-25T14:54:33.939Z,16.90
2022-10-25T14:57:04.976Z,16.90
2022-10-25T14:59:48.140Z,16.90
2022-10-25T15:02:18.840Z,16.90
2022-10-25T15:04:50.631Z,16.80
2022-10-25T15:07:33.017Z,16.80
2022-10-25T15:10:02.666Z,16.80
2022-10-25T15:12:33.039Z,16.70
2022-10-25T15:15:32.113Z,16.70
2022-10-25T15:17:59.539Z,16.70
2022-10-25T15:20:28.346Z,16.60
2022-10-25T15:23:04.741Z,16.60
2022-10-25T15:25:37.360Z,16.50
2022-10-25T15:28:16.300Z,16.50
2022-10-25T15:31:04.187Z,16.40
2022-10-25T15:33:33.497Z,16.40
2022-10-25T15:36:05.384Z,16.40
2022-10-25T15:39:05.380Z,16.40
2022-10-25T15:41:23.545Z,16.40
2022-10-25T15:43:51.815Z,16.40
2022-10-25T15:46:24.877Z,16.40
2022-10-25T15:48:53.049Z,16.30
2022-10-25T15:51:20.603Z,16.30
2022-10-25T15:53:47.945Z,16.30
2022-10-25T15:56:18.457Z,16.30
2022-10-25T15:58:45.884Z,16.30
2022-10-25T16:01:13.769Z,16.30
2022-10-25T16:03:41.232Z,16.30
2022-10-25T16:06:13.111Z,16.30
2022-10-25T16:08:41.695Z,16.30
2022-10-25T16:11:16.618Z,16.10
2022-10-25T16:13:46.780Z,16.10
2022-10-25T16:16:41.567Z,16.10
2022-10-25T16:19:17.363Z,16.00
2022-10-25T16:21:45.533Z,16.00
2022-10-25T16:24:13.613Z,16.00
2022-10-25T16:26:44.183Z,15.90
2022-10-25T16:29:19.891Z,15.90
2022-10-25T16:31:47.687Z,15.80
2022-10-25T16:34:17.357Z,15.80
2022-10-25T16:36:48.705Z,15.80
2022-10-25T16:39:16.781Z,15.80
2022-10-25T16:41:46.177Z,15.70
2022-10-25T16:44:15.748Z,15.60
2022-10-25T16:46:43.521Z,15.60
2022-10-25T16:49:11.324Z,15.60
2022-10-25T16:51:39.895Z,15.60
2022-10-25T16:54:07.902Z,15.60
2022-10-25T16:56:35.724Z,15.60
2022-10-25T16:59:03.796Z,15.60
2022-10-25T17:01:34.828Z,15.50
2022-10-25T17:04:04.404Z,15.50
2022-10-25T17:06:47.447Z,15.50
2022-10-25T17:09:16.513Z,15.40
2022-10-25T17:11:44.550Z,15.30
2022-10-25T17:14:12.679Z,15.30
2022-10-25T17:16:44.575Z,15.30
2022-10-25T17:19:12.995Z,15.30
2022-10-25T17:21:40.651Z,15.30
2022-10-25T17:24:09.712Z,15.30
2022-10-25T17:26:38.104Z,15.30
2022-10-25T17:29:05.540Z,15.30
2022-10-25T17:31:33.284Z,15.20
2022-10-25T17:34:01.351Z,15.20
2022-10-25T17:36:31.411Z,15.10
2022-10-25T17:39:00.146Z,15.10
2022-10-25T17:41:28.079Z,15.10
2022-10-25T17:43:56.877Z,15.00
2022-10-25T17:46:27.628Z,15.00
2022-10-25T17:48:56.744Z,15.00
2022-10-25T17:51:24.286Z,15.00
2022-10-25T17:53:54.279Z,15.00
2022-10-25T17:56:23.585Z,15.00
2022-10-25T17:58:51.710Z,15.00
2022-10-25T18:01:25.054Z,14.90
2022-10-25T18:03:54.793Z,14.90
2022-10-25T18:06:24.506Z,14.80
2022-10-25T18:08:53.842Z,14.80
2022-10-25T18:11:23.383Z,14.80
2022-10-25T18:13:54.975Z,14.80
2022-10-25T18:16:26.165Z,14.80
2022-10-25T18:18:55.511Z,14.80
2022-10-25T18:21:23.036Z,14.80
2022-10-25T18:23:54.804Z,14.80
2022-10-25T18:26:22.357Z,14.80
2022-10-25T18:28:50.180Z,14.80
2022-10-25T18:31:18.431Z,14.80
2022-10-25T18:33:47.924Z,14.80
2022-10-25T18:36:19.293Z,14.80
2022-10-25T18:38:51.095Z,14.80
2022-10-25T18:41:24.886Z,14.80
2022-10-25T18:43:52.752Z,14.80
2022-10-25T18:46:20.353Z,14.80
2022-10-25T18:48:52.495Z,14.80
2022-10-25T18:51:21.540Z,14.80
2022-10-25T18:53:53.578Z,14.80
2022-10-25T18:56:22.177Z,14.80
2022-10-25T18:58:50.463Z,14.80
2022-10-25T19:01:22.347Z,14.80
2022-10-25T19:03:50.367Z,14.80
2022-10-25T19:06:18.352Z,14.80
2022-10-25T19:08:45.727Z,14.80
2022-10-25T19:11:13.934Z,14.80
2022-10-25T19:13:41.293Z,14.80
2022-10-25T19:16:09.554Z,14.80
2022-10-25T19:18:37.915Z,14.80
2022-10-25T19:21:08.156Z,14.80
2022-10-25T19:23:36.582Z,14.80
2022-10-25T19:26:06.558Z,14.80
2022-10-25T19:28:34.675Z,14.80
2022-10-25T19:31:18.185Z,14.80
2022-10-25T19:33:50.001Z,14.80
2022-10-25T19:36:17.917Z,14.80
2022-10-25T19:38:45.944Z,14.80
2022-10-25T19:41:16.515Z,14.80
2022-10-25T19:43:44.053Z,14.90
2022-10-25T19:46:12.920Z,14.80
2022-10-25T19:48:40.833Z,14.90
2022-10-25T19:51:15.743Z,14.80
2022-10-25T19:53:43.835Z,14.80
2022-10-25T19:56:22.145Z,14.80
2022-10-25T19:58:50.126Z,14.90
2022-10-25T20:01:24.570Z,14.90
2022-10-25T20:03:54.574Z,14.90
2022-10-25T20:06:25.122Z,14.90
2022-10-25T20:08:53.693Z,14.90
2022-10-25T20:11:22.885Z,15.00
2022-10-25T20:13:57.984Z,15.00
2022-10-25T20:16:26.239Z,15.00
2022-10-25T20:18:53.902Z,15.00
2022-10-25T20:21:24.622Z,15.00
2022-10-25T20:23:57.540Z,15.10
2022-10-25T20:26:30.708Z,15.10
2022-10-25T20:29:03.550Z,15.10
2022-10-25T20:31:32.761Z,15.10
2022-10-25T20:34:02.422Z,15.00
2022-10-25T20:36:30.232Z,15.10
2022-10-25T20:38:58.431Z,15.00
2022-10-25T20:41:28.817Z,15.10
2022-10-25T20:43:59.763Z,15.10
2022-10-25T20:46:27.734Z,15.10
2022-10-25T20:48:55.333Z,15.10
2022-10-25T20:51:22.972Z,15.10
2022-10-25T20:53:50.415Z,15.10
2022-10-25T20:56:19.881Z,15.10
2022-10-25T20:58:47.666Z,15.10
2022-10-25T21:01:15.489Z,15.10
2022-10-25T21:03:43.337Z,15.10
2022-10-25T21:06:12.303Z,15.10
2022-10-25T21:08:40.114Z,15.20
2022-10-25T21:11:10.548Z,15.20
2022-10-25T21:13:37.938Z,15.20
2022-10-25T21:16:15.614Z,15.20
2022-10-25T21:18:43.861Z,15.30
2022-10-25T21:21:20.083Z,15.30
2022-10-25T21:23:48.058Z,15.30
2022-10-25T21:26:15.713Z,15.20
2022-10-25T21:28:43.124Z,15.20
2022-10-25T21:31:13.413Z,15.30
2022-10-25T21:33:49.658Z,15.30
2022-10-25T21:36:20.233Z,15.30
2022-10-25T21:38:47.593Z,15.30
2022-10-25T21:41:20.876Z,15.30
2022-10-25T21:43:49.853Z,15.20
2022-10-25T21:46:18.883Z,15.20
2022-10-25T21:48:48.029Z,15.20
2022-10-25T21:51:15.492Z,15.20
2022-10-25T21:53:43.034Z,15.20
2022-10-25T21:56:15.761Z,15.20
2022-10-25T21:58:45.240Z,15.20
2022-10-25T22:01:18.491Z,15.20
2022-10-25T22:03:46.411Z,15.30
2022-10-25T22:06:16.140Z,15.30
2022-10-25T22:08:43.751Z,15.30
2022-10-25T22:11:12.348Z,15.30
2022-10-25T22:13:40.042Z,15.30
2022-10-25T22:16:08.428Z,15.30
2022-10-25T22:18:36.605Z,15.30
2022-10-25T22:21:07.226Z,15.30
2022-10-25T22:23:35.199Z,15.30
2022-10-25T22:26:07.734Z,15.30
2022-10-25T22:28:38.358Z,15.30
2022-10-25T22:31:16.595Z,15.30
2022-10-25T22:33:44.832Z,15.30
2022-10-25T22:36:17.712Z,15.30
2022-10-25T22:38:45.921Z,15.30
2022-10-25T22:41:15.878Z,15.40
2022-10-25T22:43:44.618Z,15.30
2022-10-25T22:46:14.475Z,15.30
2022-10-25T22:48:43.251Z,15.30
2022-10-25T22:51:12.511Z,15.30
2022-10-25T22:53:40.999Z,15.30
2022-10-25T22:56:18.241Z,15.30
2022-10-25T22:58:54.202Z,15.30
2022-10-25T23:01:29.511Z,15.40
2022-10-25T23:03:58.740Z,15.40
2022-10-25T23:06:31.202Z,15.40
2022-10-25T23:09:00.517Z,15.40
2022-10-25T23:11:33.501Z,15.40
2022-10-25T23:14:01.863Z,15.40
2022-10-25T23:16:29.898Z,15.40
2022-10-25T23:18:57.366Z,15.50
2022-10-25T23:21:26.796Z,15.40
2022-10-25T23:23:56.107Z,15.50
2022-10-25T23:26:26.695Z,15.50
2022-10-25T23:28:55.325Z,15.50
2022-10-25T23:31:23.396Z,15.50
2022-10-25T23:33:53.111Z,15.50
2022-10-25T23:36:22.945Z,15.50
2022-10-25T23:38:51.564Z,15.50
2022-10-25T23:41:20.144Z,15.50
2022-10-25T23:43:48.008Z,15.50
2022-10-25T23:46:15.430Z,15.50
2022-10-25T23:48:42.920Z,15.50
2022-10-25T23:51:13.120Z,15.50
2022-10-25T23:53:41.390Z,15.60
2022-10-25T23:56:11.169Z,15.60
2022-10-25T23:58:38.930Z,15.60
